Time;durP1;ratioP1;P1;durP2;ratioP2;P2;SDS_P1;SDS_P2;PMS_P1;PMS_P2;Temp;Humidity;BMP_temperature;BMP_pressure;BME280_temperature;BME280_humidity;BME280_pressure;Samples;Min_cycle;Max_cycle;Signal;HPM_P1;HPM_P2
2022/05/13 00:00:42;;;;;;;6.80;2.70;;;;;;;18.09;51.77;99139.81;2617886;54;20026;-68
2022/05/13 00:03:12;;;;;;;7.57;2.90;;;;;;;18.03;51.48;99146.88;2620005;54;20022;-69
2022/05/13 00:05:42;;;;;;;9.90;2.80;;;;;;;17.99;51.69;99134.22;2624224;39;20422;-68
2022/05/13 00:08:14;;;;;;;6.38;2.55;;;;;;;17.97;52.00;99147.03;2620510;54;20030;-70
2022/05/13 00:10:47;;;;;;;4.05;2.40;;;;;;;18.00;52.22;99143.84;2622603;54;20637;-69
2022/05/13 00:13:17;;;;;;;5.80;3.00;;;;;;;17.99;51.73;99136.88;2623621;54;20061;-67
2022/05/13 00:15:46;;;;;;;6.15;2.80;;;;;;;17.95;52.32;99133.03;2623996;54;20027;-67
2022/05/13 00:18:16;;;;;;;4.95;2.72;;;;;;;17.91;52.02;99139.91;2618526;54;20113;-69
2022/05/13 00:20:47;;;;;;;7.00;2.83;;;;;;;17.94;52.34;99139.44;2617808;54;20030;-69
2022/05/13 00:23:19;;;;;;;6.18;2.97;;;;;;;17.93;52.42;99135.16;2617452;54;20037;-69
2022/05/13 00:25:49;;;;;;;6.60;2.67;;;;;;;17.91;52.70;99137.22;2617331;47;20035;-68
2022/05/13 00:28:19;;;;;;;5.22;2.60;;;;;;;17.85;52.46;99138.97;2617228;47;20026;-69
2022/05/13 00:30:50;;;;;;;8.60;2.67;;;;;;;17.78;52.49;99139.09;2618493;39;20553;-69
2022/05/13 00:33:22;;;;;;;6.72;2.90;;;;;;;17.73;52.58;99143.47;2617813;54;20053;-68
2022/05/13 00:35:52;;;;;;;5.60;2.75;;;;;;;17.71;52.98;99146.34;2617953;54;20056;-69
2022/05/13 00:38:25;;;;;;;8.20;2.58;;;;;;;17.71;52.48;99140.19;2617657;54;20046;-68
2022/05/13 00:40:55;;;;;;;6.75;2.60;;;;;;;17.70;52.44;99139.41;2617829;54;20038;-68
2022/05/13 00:43:42;;;;;;;6.95;2.38;;;;;;;17.68;52.88;99138.00;2617878;54;20556;-68
2022/05/13 00:46:11;;;;;;;6.47;2.83;;;;;;;17.65;52.79;99141.94;2617746;54;20031;-70
2022/05/13 00:48:41;;;;;;;5.40;2.20;;;;;;;17.52;53.02;99140.31;2619653;54;20530;-69
2022/05/13 00:51:14;;;;;;;6.35;2.92;;;;;;;17.49;53.02;99140.75;2624507;54;20086;-69
2022/05/13 00:53:47;;;;;;;7.72;2.58;;;;;;;17.49;53.19;99146.09;2624130;54;20545;-69
2022/05/13 00:56:19;;;;;;;5.97;1.80;;;;;;;17.47;53.38;99147.34;2623737;54;20041;-69
2022/05/13 00:58:53;;;;;;;5.30;2.40;;;;;;;17.46;52.97;99149.22;2623610;54;20038;-69
2022/05/13 01:01:22;;;;;;;;;;;;;;;17.45;53.61;99150.28;2622596;54;20045;-69
2022/05/13 01:03:53;;;;;;;4.90;2.53;;;;;;;17.45;53.48;99139.59;2622421;54;19942;-70
2022/05/13 01:06:26;;;;;;;4.35;2.42;;;;;;;17.41;53.98;99138.41;2623004;54;20034;-68
2022/05/13 01:08:58;;;;;;;8.25;3.08;;;;;;;17.42;54.10;99141.91;2623044;54;20030;-69
2022/05/13 01:11:33;;;;;;;9.60;3.30;;;;;;;17.37;53.96;99139.09;2623135;54;20033;-68
2022/05/13 01:14:07;;;;;;;8.13;3.08;;;;;;;17.29;54.41;99137.56;2624050;54;20046;-69
2022/05/13 01:18:05;;;;;;;5.22;3.00;;;;;;;17.27;54.45;99139.66;2624012;54;20033;-70
2022/05/13 01:19:25;;;;;;;8.02;2.30;;;;;;;17.24;54.19;99140.09;2624268;54;20038;-69
2022/05/13 01:21:58;;;;;;;7.47;2.95;;;;;;;17.20;54.20;99137.06;2624956;54;20612;-68
2022/05/13 01:24:28;;;;;;;6.75;3.30;;;;;;;17.21;54.27;99141.38;2624744;54;20033;-67
2022/05/13 01:26:58;;;;;;;5.07;3.05;;;;;;;17.18;54.94;99136.47;2624786;54;20538;-69
2022/05/13 01:29:27;;;;;;;7.03;2.72;;;;;;;17.11;55.21;99135.78;2621082;54;20030;-69
2022/05/13 01:31:57;;;;;;;6.60;2.90;;;;;;;17.04;55.58;99138.53;2617889;54;20042;-68
2022/05/13 01:34:27;;;;;;;4.50;2.75;;;;;;;17.05;55.46;99134.81;2618338;54;20034;-69
2022/05/13 01:36:59;;;;;;;8.02;3.38;;;;;;;17.00;55.85;99131.19;2618468;54;20027;-69
2022/05/13 01:39:28;;;;;;;6.25;3.10;;;;;;;16.92;56.01;99128.84;2619697;54;20027;-68
2022/05/13 01:41:58;;;;;;;7.65;3.30;;;;;;;16.92;55.88;99126.16;2619649;54;20038;-69
2022/05/13 01:44:28;;;;;;;6.13;2.58;;;;;;;16.94;56.04;99130.25;2623313;54;20589;-69
2022/05/13 01:46:57;;;;;;;6.03;3.03;;;;;;;16.96;56.28;99124.66;2622676;54;20038;-70
2022/05/13 01:49:27;;;;;;;6.35;3.25;;;;;;;16.93;56.37;99123.25;2622426;54;20617;-69
2022/05/13 01:51:59;;;;;;;5.03;2.60;;;;;;;16.84;56.45;99128.09;2623496;54;20026;-69
2022/05/13 01:54:29;;;;;;;7.60;3.30;;;;;;;16.54;57.16;99133.38;2621609;54;20057;-70
2022/05/13 01:56:59;;;;;;;6.70;2.83;;;;;;;16.41;57.40;99136.19;2621084;54;20026;-69
2022/05/13 01:59:28;;;;;;;7.80;2.90;;;;;;;16.47;57.75;99134.47;2624422;54;20045;-68
2022/05/13 02:01:58;;;;;;;6.38;3.08;;;;;;;16.49;58.02;99125.22;2624709;54;20038;-68
2022/05/13 02:04:28;;;;;;;5.45;3.28;;;;;;;16.52;57.50;99138.09;2622075;54;20034;-68
2022/05/13 02:07:00;;;;;;;6.63;2.95;;;;;;;16.46;57.97;99132.88;2622608;54;20034;-69
2022/05/13 02:09:30;;;;;;;11.95;3.53;;;;;;;16.44;58.06;99133.06;2624427;54;20042;-68
2022/05/13 02:12:00;;;;;;;4.72;2.88;;;;;;;16.40;57.92;99136.41;2623152;54;20023;-70
2022/05/13 02:14:29;;;;;;;4.82;2.60;;;;;;;16.35;57.86;99139.75;2622888;54;20099;-70
2022/05/13 02:16:59;;;;;;;6.60;3.05;;;;;;;16.28;57.96;99136.31;2618480;54;20042;-69
2022/05/13 02:19:29;;;;;;;6.75;3.00;;;;;;;16.05;58.58;99144.97;2618674;54;20038;-68
2022/05/13 02:22:01;;;;;;;9.57;2.63;;;;;;;16.03;58.82;99137.19;2618697;54;20035;-69
2022/05/13 02:24:31;;;;;;;5.40;3.25;;;;;;;16.06;59.19;99138.59;2619094;54;20035;-69
2022/05/13 02:27:01;;;;;;;6.57;3.33;;;;;;;16.01;58.93;99141.94;2618719;39;20442;-68
2022/05/13 02:29:30;;;;;;;7.63;3.45;;;;;;;16.04;59.35;99143.31;2617761;54;20056;-70
2022/05/13 02:32:00;;;;;;;7.40;3.53;;;;;;;16.14;58.82;99134.84;2618852;39;20442;-69
2022/05/13 02:34:30;;;;;;;6.10;3.08;;;;;;;16.20;59.07;99136.59;2617912;54;20033;-69
2022/05/13 02:37:02;;;;;;;5.75;3.00;;;;;;;16.17;58.44;99132.53;2619175;54;20038;-68
2022/05/13 02:39:32;;;;;;;7.40;3.40;;;;;;;16.06;58.59;99133.25;2620507;54;20065;-69
2022/05/13 02:42:02;;;;;;;5.65;2.90;;;;;;;16.02;59.22;99140.06;2619500;54;20038;-68
2022/05/13 02:44:32;;;;;;;6.18;2.65;;;;;;;16.09;58.93;99146.16;2619564;54;20041;-69
2022/05/13 02:47:01;;;;;;;7.40;3.67;;;;;;;16.16;58.98;99140.75;2620223;54;20045;-68
2022/05/13 02:49:31;;;;;;;7.25;4.15;;;;;;;16.18;58.66;99141.34;2621529;54;20542;-68
2022/05/13 02:52:03;;;;;;;4.70;3.20;;;;;;;16.13;58.91;99133.22;2624592;54;20031;-68
2022/05/13 02:54:33;;;;;;;7.22;2.95;;;;;;;16.10;58.91;99139.78;2627788;54;20026;-69
2022/05/13 02:57:03;;;;;;;7.20;3.88;;;;;;;16.04;58.75;99148.66;2624910;54;20034;-68
2022/05/13 02:59:33;;;;;;;6.60;3.63;;;;;;;15.99;59.01;99148.50;2619915;54;20035;-68
2022/05/13 03:02:02;;;;;;;3.97;2.78;;;;;;;15.95;59.21;99157.97;2617994;54;20035;-68
2022/05/13 03:04:32;;;;;;;5.88;3.22;;;;;;;15.89;59.34;99153.53;2617876;54;20038;-68
2022/05/13 03:07:05;;;;;;;7.05;3.42;;;;;;;15.84;60.04;99157.66;2617406;47;20038;-69
2022/05/13 03:09:34;;;;;;;6.28;3.33;;;;;;;15.71;60.06;99143.63;2618027;54;20064;-70
2022/05/13 03:12:05;;;;;;;4.53;2.92;;;;;;;15.55;60.74;99140.44;2618173;54;20039;-68
2022/05/13 03:14:34;;;;;;;6.57;3.38;;;;;;;15.62;60.90;99151.03;2618581;39;20434;-68
2022/05/13 03:17:06;;;;;;;5.63;3.38;;;;;;;15.70;60.35;99156.13;2617376;54;20046;-69
2022/05/13 03:19:39;;;;;;;5.82;3.90;;;;;;;15.72;60.23;99163.94;2617677;54;20106;-68
2022/05/13 03:22:11;;;;;;;5.13;3.20;;;;;;;15.66;60.59;99162.91;2618061;54;20050;-68
2022/05/13 03:24:41;;;;;;;9.65;3.65;;;;;;;15.72;60.38;99162.06;2617782;54;20034;-70
2022/05/13 03:27:10;;;;;;;6.63;3.75;;;;;;;15.71;60.34;99165.75;2618356;54;20042;-69
2022/05/13 03:29:40;;;;;;;6.30;3.65;;;;;;;15.67;60.87;99171.72;2624090;54;20617;-70
2022/05/13 03:32:11;;;;;;;4.15;3.25;;;;;;;15.55;60.92;99164.44;2620711;54;20634;-68
2022/05/13 03:34:41;;;;;;;6.07;3.53;;;;;;;15.48;61.24;99168.16;2617843;54;20035;-70
2022/05/13 03:37:13;;;;;;;6.10;3.47;;;;;;;15.42;61.57;99158.34;2617770;54;20034;-69
2022/05/13 03:39:44;;;;;;;6.68;3.65;;;;;;;15.41;61.30;99156.72;2617679;54;20060;-69
2022/05/13 03:42:14;;;;;;;8.07;3.33;;;;;;;15.39;61.45;99162.28;2617429;54;20026;-67
2022/05/13 03:44:44;;;;;;;4.65;3.10;;;;;;;15.36;61.34;99165.38;2617899;54;20027;-67
2022/05/13 03:47:14;;;;;;;7.68;3.72;;;;;;;15.41;61.72;99170.84;2617302;54;20033;-68
2022/05/13 03:49:43;;;;;;;9.85;4.18;;;;;;;15.39;61.16;99164.09;2617874;54;20045;-68
2022/05/13 03:52:16;;;;;;;4.20;3.33;;;;;;;15.36;61.61;99163.50;2617133;54;20039;-70
2022/05/13 03:54:46;;;;;;;4.95;3.58;;;;;;;15.34;61.54;99162.91;2617821;54;20034;-68
2022/05/13 03:57:15;;;;;;;5.78;3.45;;;;;;;15.35;61.55;99161.88;2617537;54;20577;-69
2022/05/13 03:59:45;;;;;;;8.43;3.70;;;;;;;15.38;61.40;99170.47;2617385;54;20577;-66
2022/05/13 04:02:14;;;;;;;9.60;4.18;;;;;;;15.41;61.83;99170.03;2617788;54;20550;-67
2022/05/13 04:10:12;;;;;;;6.28;3.58;;;;;;;15.05;62.77;99177.59;2617662;54;20027;-67
2022/05/13 04:18:07;;;;;;;6.75;4.65;;;;;;;14.83;63.50;99162.97;2619324;54;20023;-66
2022/05/13 04:20:36;;;;;;;7.30;4.35;;;;;;;14.83;63.29;99165.63;2627892;39;20465;-66
2022/05/13 04:23:09;;;;;;;9.60;5.13;;;;;;;14.81;63.97;99170.34;2620583;47;20040;-66
2022/05/13 04:25:38;;;;;;;7.80;3.75;;;;;;;14.93;63.64;99173.16;2618385;54;20041;-66
2022/05/13 04:28:08;;;;;;;6.75;3.95;;;;;;;15.10;63.37;99169.81;2618216;54;20042;-65
2022/05/13 04:30:38;;;;;;;10.45;4.30;;;;;;;15.11;63.25;99170.63;2618298;54;20069;-63
2022/05/13 04:33:07;;;;;;;7.63;3.90;;;;;;;15.23;63.25;99174.25;2618096;54;20018;-64
2022/05/13 04:35:37;;;;;;;4.57;3.53;;;;;;;15.43;63.13;99176.81;2618039;54;20041;-65
2022/05/13 04:38:09;;;;;;;6.05;3.67;;;;;;;15.54;62.35;99181.41;2618022;54;20038;-65
2022/05/13 04:40:39;;;;;;;8.05;4.40;;;;;;;15.56;62.19;99174.03;2618395;54;20569;-65
2022/05/13 04:43:06;;;;;;;6.20;3.80;;;;;;;15.45;61.94;99172.06;2618414;47;20030;-64
2022/05/13 04:45:36;;;;;;;7.53;3.50;;;;;;;15.31;63.11;99184.66;2618258;47;20027;-64
2022/05/13 04:48:18;;;;;;;6.63;4.38;;;;;;;15.49;62.99;99181.25;2619012;54;20058;-65
2022/05/13 04:50:52;;;;;;;7.95;4.05;;;;;;;15.66;62.19;99178.09;2618463;54;20554;-65
2022/05/13 04:53:27;;;;;;;8.20;4.30;;;;;;;15.67;62.33;99182.38;2619496;54;20074;-68
2022/05/13 04:55:58;;;;;;;4.95;3.78;;;;;;;15.66;62.10;99184.25;2618842;47;20031;-66
2022/05/13 04:58:29;;;;;;;5.40;3.53;;;;;;;15.69;62.26;99185.66;2619113;54;20030;-65
2022/05/13 05:01:01;;;;;;;7.32;4.32;;;;;;;15.78;61.94;99184.38;2619282;54;20038;-66
2022/05/13 05:03:32;;;;;;;5.75;3.72;;;;;;;15.76;61.59;99181.94;2618951;54;20074;-68
2022/05/13 05:06:02;;;;;;;7.65;4.22;;;;;;;15.73;61.67;99187.69;2619413;54;20034;-65
2022/05/13 05:08:34;;;;;;;6.25;4.60;;;;;;;15.70;62.01;99182.78;2618420;50;20033;-64
2022/05/13 05:11:05;;;;;;;6.35;4.38;;;;;;;15.76;61.54;99187.25;2618834;54;20030;-67
2022/05/13 05:13:37;;;;;;;7.65;4.00;;;;;;;15.78;61.62;99190.50;2618908;54;20027;-67
2022/05/13 05:16:08;;;;;;;8.60;4.60;;;;;;;15.77;61.49;99190.75;2618858;54;20054;-65
2022/05/13 05:18:39;;;;;;;12.15;4.70;;;;;;;15.79;61.71;99204.66;2618784;54;20125;-65
2022/05/13 05:21:11;;;;;;;7.75;3.92;;;;;;;15.78;61.40;99203.03;2619547;54;20045;-66
2022/05/13 05:23:45;;;;;;;5.25;4.22;;;;;;;15.75;61.25;99212.25;2619362;54;20086;-66
2022/05/13 05:26:15;;;;;;;8.10;4.65;;;;;;;15.74;61.87;99215.16;2619110;54;20033;-66
2022/05/13 05:28:45;;;;;;;6.53;3.67;;;;;;;15.76;61.71;99221.91;2619224;54;20122;-66
2022/05/13 05:31:14;;;;;;;7.15;3.90;;;;;;;15.81;61.85;99223.91;2618438;47;20038;-66
2022/05/13 05:33:45;;;;;;;8.68;4.32;;;;;;;15.82;61.76;99231.69;2618829;54;20549;-66
2022/05/13 05:36:14;;;;;;;8.80;4.72;;;;;;;15.78;62.02;99243.00;2623070;39;20432;-66
2022/05/13 05:38:47;;;;;;;7.78;3.90;;;;;;;15.86;61.97;99242.75;2622033;54;20052;-65
2022/05/13 05:41:16;;;;;;;8.95;4.53;;;;;;;15.98;61.91;99248.19;2621933;54;20038;-66
2022/05/13 05:43:46;;;;;;;6.38;3.60;;;;;;;16.05;61.52;99247.13;2622178;54;20026;-66
2022/05/13 05:46:16;;;;;;;8.48;4.00;;;;;;;16.25;61.50;99252.28;2621789;54;20022;-66
2022/05/13 05:48:45;;;;;;;7.82;3.90;;;;;;;16.34;60.84;99258.97;2621048;54;20081;-66
2022/05/13 05:51:15;;;;;;;8.63;4.20;;;;;;;16.48;60.71;99256.19;2619003;54;20053;-66
2022/05/13 05:59:11;;;;;;;7.60;3.90;;;;;;;16.60;59.12;99263.25;2618679;54;20099;-66
2022/05/13 06:01:41;;;;;;;6.75;3.13;;;;;;;16.62;58.12;99264.91;2619057;54;20539;-66
2022/05/13 06:04:11;;;;;;;7.15;3.78;;;;;;;16.56;58.40;99270.06;2618829;54;20077;-65
2022/05/13 06:06:40;;;;;;;4.97;3.05;;;;;;;16.72;57.92;99278.53;2617932;47;20077;-67
2022/05/13 06:09:13;;;;;;;7.13;2.80;;;;;;;16.83;57.03;99284.00;2619676;54;20553;-68
2022/05/13 06:11:43;;;;;;;6.37;2.60;;;;;;;16.65;56.53;99288.47;2619842;54;20042;-66
2022/05/13 06:14:13;;;;;;;7.07;2.40;;;;;;;16.62;56.09;99287.06;2619242;54;20298;-64
2022/05/13 06:16:42;;;;;;;8.40;2.47;;;;;;;16.68;55.45;99293.38;2618580;54;20034;-64
2022/05/13 06:19:12;;;;;;;6.18;2.70;;;;;;;16.64;55.13;99298.31;2618462;54;20026;-64
2022/05/13 06:21:41;;;;;;;4.95;2.70;;;;;;;16.68;55.28;99299.53;2618276;54;20069;-66
2022/05/13 06:24:14;;;;;;;5.25;2.40;;;;;;;16.93;55.02;99307.50;2618620;54;20042;-65
2022/05/13 06:26:44;;;;;;;5.75;2.25;;;;;;;17.02;53.69;99311.56;2618528;39;20430;-65
2022/05/13 06:29:13;;;;;;;5.47;2.42;;;;;;;17.01;53.56;99319.75;2618603;54;20038;-64
2022/05/13 06:31:44;;;;;;;6.20;2.38;;;;;;;17.17;53.09;99318.38;2618793;54;20031;-66
2022/05/13 06:34:14;;;;;;;6.05;2.45;;;;;;;17.24;52.95;99317.25;2618607;54;20029;-65
2022/05/13 06:36:44;;;;;;;4.28;2.47;;;;;;;17.42;53.28;99313.75;2619163;39;20417;-66
2022/05/13 06:39:16;;;;;;;8.23;2.63;;;;;;;17.60;52.59;99323.63;2618573;54;20549;-65
2022/05/13 06:41:47;;;;;;;6.38;2.10;;;;;;;17.71;52.42;99327.34;2618539;54;20049;-66
2022/05/13 06:44:18;;;;;;;5.50;2.63;;;;;;;17.83;52.05;99325.56;2618602;54;20038;-66
2022/05/13 06:46:48;;;;;;;5.82;1.90;;;;;;;17.75;51.68;99333.91;2618078;54;20057;-67
2022/05/13 06:49:17;;;;;;;4.47;2.30;;;;;;;17.42;52.07;99339.66;2618008;54;20039;-64
2022/05/13 06:51:47;;;;;;;5.47;2.03;;;;;;;17.49;51.93;99333.19;2618234;54;20027;-66
2022/05/13 06:54:19;;;;;;;9.82;2.05;;;;;;;17.39;51.52;99343.59;2618720;54;20038;-66
2022/05/13 06:56:54;;;;;;;4.00;1.90;;;;;;;17.35;51.53;99334.41;2617719;54;20045;-64
2022/05/13 06:59:24;;;;;;;6.10;2.33;;;;;;;17.34;51.02;99338.91;2618413;54;20027;-66
2022/05/13 07:01:54;;;;;;;4.97;1.88;;;;;;;17.45;51.06;99333.88;2618484;54;20042;-65
2022/05/13 07:04:24;;;;;;;5.88;2.30;;;;;;;17.63;50.67;99331.16;2618411;54;20018;-66
2022/05/13 07:06:54;;;;;;;5.40;2.20;;;;;;;17.44;50.57;99335.72;2618427;54;20042;-66
2022/05/13 07:09:26;;;;;;;5.90;2.60;;;;;;;17.21;51.41;99335.59;2619188;54;20027;-64
2022/05/13 07:11:56;;;;;;;8.18;2.58;;;;;;;17.19;51.65;99335.00;2619467;54;20069;-64
2022/05/13 07:14:26;;;;;;;5.68;2.03;;;;;;;16.97;51.76;99338.09;2618632;54;20027;-66
2022/05/13 07:16:57;;;;;;;6.40;1.90;;;;;;;17.11;51.62;99338.78;2617693;54;20030;-67
2022/05/13 07:55:29;;;;;;;4.55;1.90;;;;;;;17.80;47.35;99345.59;2614346;54;19957;-71
2022/05/13 07:57:59;;;;;;;9.82;1.92;;;;;;;17.79;47.36;99343.94;2621769;54;20030;-71
2022/05/13 08:00:29;;;;;;;7.22;2.35;;;;;;;17.94;47.33;99348.06;2621719;54;20045;-71
2022/05/13 08:03:02;;;;;;;6.78;2.53;;;;;;;18.06;46.56;99346.25;2621605;46;20110;-71
2022/05/13 08:05:33;;;;;;;7.32;2.05;;;;;;;18.12;46.90;99337.31;2622275;54;20027;-71
2022/05/13 08:08:05;;;;;;;8.65;2.35;;;;;;;18.12;46.18;99334.63;2622322;54;20030;-70
2022/05/13 08:10:38;;;;;;;8.57;2.20;;;;;;;18.13;45.76;99338.16;2621430;54;20030;-70
2022/05/13 08:13:09;;;;;;;11.77;2.97;;;;;;;18.13;45.81;99319.41;2619442;54;20037;-70
2022/05/13 08:15:39;;;;;;;5.82;1.98;;;;;;;18.15;46.00;99331.50;2618415;54;20045;-71
2022/05/13 08:18:09;;;;;;;6.68;2.28;;;;;;;18.22;45.69;99326.88;2622773;54;20042;-71
2022/05/13 08:20:43;;;;;;;12.23;2.50;;;;;;;18.21;45.02;99343.16;2626403;39;20418;-70
2022/05/13 08:23:13;;;;;;;7.13;2.60;;;;;;;18.17;45.35;99329.44;2625113;54;20042;-72
2022/05/13 08:25:47;;;;;;;9.68;2.10;;;;;;;18.26;45.66;99329.91;2623123;54;20038;-70
2022/05/13 08:28:18;;;;;;;14.15;2.13;;;;;;;18.37;45.20;99330.97;2621267;39;20437;-70
2022/05/13 08:30:48;;;;;;;10.20;2.13;;;;;;;18.37;44.44;99330.97;2621166;54;20029;-70
2022/05/13 08:33:19;;;;;;;6.47;2.53;;;;;;;18.35;44.28;99325.84;2619328;47;20034;-70
2022/05/13 08:35:52;;;;;;;8.18;2.08;;;;;;;18.51;44.96;99319.00;2624058;39;20074;-70
2022/05/13 08:38:26;;;;;;;5.60;1.67;;;;;;;18.54;43.98;99326.56;2623545;54;20029;-70
2022/05/13 08:41:24;;;;;;;6.72;1.73;;;;;;;18.68;43.77;99319.94;2621429;47;20037;-70
2022/05/13 08:43:56;;;;;;;6.05;2.13;;;;;;;18.61;43.80;99318.41;2618002;54;20045;-70
2022/05/13 08:46:35;;;;;;;6.20;2.00;;;;;;;18.67;43.25;99317.50;2618356;47;20030;-70
2022/05/13 08:49:13;;;;;;;5.85;2.03;;;;;;;18.71;43.27;99310.66;2618522;54;20026;-70
2022/05/13 08:51:58;;;;;;;5.43;1.42;;;;;;;18.71;42.99;99318.69;2617824;47;20030;-73
2022/05/13 08:54:34;;;;;;;4.18;1.75;;;;;;;18.67;42.86;99320.19;2618398;54;20065;-69
2022/05/13 08:57:11;;;;;;;5.63;1.73;;;;;;;18.70;42.17;99314.41;2618387;54;20034;-69
2022/05/13 08:59:48;;;;;;;7.05;1.50;;;;;;;18.87;42.52;99319.88;2618704;54;20538;-69
2022/05/13 09:02:23;;;;;;;3.35;1.30;;;;;;;19.15;41.42;99325.31;2618879;54;20039;-69
2022/05/13 09:05:02;;;;;;;11.13;1.83;;;;;;;19.16;40.77;99320.75;2618172;54;20033;-69
2022/05/13 09:07:32;;;;;;;7.18;1.60;;;;;;;19.15;41.00;99324.50;2618286;54;20819;-68
2022/05/13 09:10:04;;;;;;;4.55;1.40;;;;;;;19.22;41.07;99325.16;2618432;54;20825;-70
2022/05/13 09:12:43;;;;;;;6.05;2.00;;;;;;;19.25;39.87;99330.06;2618470;54;20027;-69
2022/05/13 09:15:20;;;;;;;3.83;1.48;;;;;;;19.28;40.11;99319.69;2617564;47;20023;-70
2022/05/13 09:18:03;;;;;;;9.05;1.80;;;;;;;19.34;40.37;99322.47;2617688;54;20557;-70
2022/05/13 09:20:46;;;;;;;4.82;1.58;;;;;;;19.35;40.05;99318.72;2617780;46;20042;-69
2022/05/13 09:23:17;;;;;;;4.38;1.42;;;;;;;19.43;39.24;99331.75;2617893;54;20046;-69
2022/05/13 09:26:01;;;;;;;4.85;1.45;;;;;;;19.33;38.83;99334.25;2617846;47;20026;-69
2022/05/13 09:28:36;;;;;;;3.30;1.23;;;;;;;19.40;38.38;99325.03;2618655;54;20034;-69
2022/05/13 09:31:21;;;;;;;7.47;1.65;;;;;;;19.47;37.67;99332.91;2617926;47;20030;-70
2022/05/13 09:34:18;;;;;;;5.80;1.40;;;;;;;19.40;37.90;99327.69;2622810;54;20035;-71
2022/05/13 09:36:51;;;;;;;3.30;1.10;;;;;;;19.36;37.14;99323.88;2626148;46;20285;-70
2022/05/13 09:39:25;;;;;;;5.70;1.40;;;;;;;19.44;36.61;99336.91;2625549;54;20041;-70
2022/05/13 09:41:55;;;;;;;5.75;1.23;;;;;;;19.53;36.05;99338.16;2618524;54;20043;-71
2022/05/13 09:44:30;;;;;;;5.00;1.75;;;;;;;19.40;36.38;99327.69;2619408;54;20036;-70
2022/05/13 09:47:13;;;;;;;6.75;1.70;;;;;;;19.50;36.90;99330.56;2618640;54;20037;-67
2022/05/13 09:50:06;;;;;;;5.70;1.48;;;;;;;19.53;35.80;99340.00;2617792;54;20034;-69
2022/05/13 09:52:39;;;;;;;4.10;1.13;;;;;;;19.54;34.95;99323.69;2618902;39;20413;-69
2022/05/13 09:55:18;;;;;;;7.68;1.33;;;;;;;19.43;34.94;99327.22;2617687;54;20022;-68
2022/05/13 09:57:52;;;;;;;2.90;1.10;;;;;;;19.50;34.78;99327.88;2618103;54;20030;-68
2022/05/13 10:00:32;;;;;;;2.67;1.10;;;;;;;19.60;34.56;99321.94;2618775;39;20431;-68
2022/05/13 10:03:11;;;;;;;5.10;1.27;;;;;;;19.70;34.32;99330.19;2618273;54;20042;-74
2022/05/13 10:05:41;;;;;;;5.30;1.05;;;;;;;19.69;34.57;99319.72;2617699;54;20060;-67
2022/05/13 10:08:17;;;;;;;5.45;1.13;;;;;;;19.71;34.06;99329.13;2617138;54;20052;-69
2022/05/13 10:14:01;;;;;;;1.30;0.98;;;;;;;19.79;34.06;99327.94;2617964;54;20076;-68
2022/05/13 10:16:37;;;;;;;5.00;1.20;;;;;;;19.86;34.45;99319.75;2618038;54;20554;-69
2022/05/13 10:19:13;;;;;;;3.03;1.40;;;;;;;19.96;34.36;99317.25;2617518;46;20027;-69
2022/05/13 10:21:49;;;;;;;4.05;1.15;;;;;;;19.89;34.60;99321.97;2617736;47;20034;-69
2022/05/13 10:24:33;;;;;;;3.17;1.25;;;;;;;19.88;34.46;99318.47;2617272;54;20177;-69
2022/05/13 10:27:05;;;;;;;4.95;1.42;;;;;;;19.85;34.88;99308.22;2617347;47;20049;-69
2022/05/13 10:29:39;;;;;;;3.95;1.08;;;;;;;20.05;35.34;99310.44;2617646;47;20030;-68
2022/05/13 10:32:22;;;;;;;3.13;0.95;;;;;;;20.32;34.78;99307.13;2618103;54;20039;-68
2022/05/13 10:34:56;;;;;;;4.93;1.27;;;;;;;20.49;32.71;99311.47;2617351;47;20577;-68
2022/05/13 10:37:33;;;;;;;2.15;1.00;;;;;;;20.34;33.01;99313.06;2617270;54;20062;-69
2022/05/13 10:40:06;;;;;;;4.15;1.08;;;;;;;20.27;33.23;99316.72;2617973;54;20049;-67
2022/05/13 10:42:40;;;;;;;5.70;1.40;;;;;;;20.34;32.53;99318.44;2618179;54;20042;-68
2022/05/13 10:45:15;;;;;;;5.20;1.30;;;;;;;20.43;31.95;99314.28;2617860;54;20081;-69
2022/05/13 10:47:52;;;;;;;5.45;1.05;;;;;;;20.53;31.78;99317.16;2617294;47;20038;-68
2022/05/13 10:50:25;;;;;;;3.38;0.70;;;;;;;20.46;32.04;99306.56;2617300;54;20110;-69
2022/05/13 10:52:59;;;;;;;3.47;1.20;;;;;;;20.39;32.63;99316.66;2617379;47;20035;-69
2022/05/13 10:55:38;;;;;;;4.45;1.00;;;;;;;20.36;32.18;99298.31;2618506;54;20570;-68
2022/05/13 10:58:22;;;;;;;2.35;0.93;;;;;;;20.50;31.43;99314.97;2621474;54;20022;-69
2022/05/13 11:00:59;;;;;;;3.88;1.10;;;;;;;20.51;30.84;99301.28;2621935;46;20511;-68
2022/05/13 11:03:43;;;;;;;2.22;1.05;;;;;;;20.47;30.90;99296.63;2621093;54;20115;-69
2022/05/13 11:06:28;;;;;;;3.35;1.00;;;;;;;20.67;30.94;99293.47;2622806;39;20465;-67
2022/05/13 11:09:06;;;;;;;2.65;1.55;;;;;;;20.70;30.36;99293.78;2620029;54;20071;-68
2022/05/13 11:11:40;;;;;;;3.00;1.05;;;;;;;20.67;30.31;99302.34;2618103;54;20042;-67
2022/05/13 11:14:17;;;;;;;;;;;;;;;20.69;30.76;99284.09;2618452;54;20038;-69
2022/05/13 11:16:56;;;;;;;4.28;1.30;;;;;;;20.82;30.72;99293.69;2617746;54;19988;-69
2022/05/13 11:19:36;;;;;;;2.50;1.00;;;;;;;20.93;30.12;99287.38;2617806;54;20039;-67
2022/05/13 11:22:16;;;;;;;3.90;1.27;;;;;;;21.01;29.80;99286.13;2617786;54;20045;-67
2022/05/13 11:27:56;;;;;;;2.67;0.95;;;;;;;20.94;29.37;99277.44;2617662;54;20034;-67
2022/05/13 11:30:38;;;;;;;2.20;1.02;;;;;;;20.73;29.10;99290.59;2617134;51;20034;-67
2022/05/13 11:33:29;;;;;;;2.10;0.75;;;;;;;20.63;29.39;99281.59;2618091;54;20031;-68
2022/05/13 11:36:26;;;;;;;2.10;0.80;;;;;;;20.71;29.19;99279.28;2617758;54;20580;-67
2022/05/13 11:39:14;;;;;;;2.33;1.00;;;;;;;20.81;28.93;99285.88;2617850;54;20038;-67
2022/05/13 11:41:52;;;;;;;6.22;0.90;;;;;;;20.89;28.85;99277.38;2617850;54;20026;-68
2022/05/13 11:44:53;;;;;;;2.10;0.90;;;;;;;20.98;28.31;99278.56;2617163;47;20033;-68
2022/05/13 11:47:33;;;;;;;3.42;0.80;;;;;;;21.12;28.61;99287.91;2617457;54;20061;-69
2022/05/13 11:50:02;;;;;;;3.15;0.98;;;;;;;21.06;28.60;99288.88;2620462;54;20137;-67
2022/05/13 11:52:53;;;;;;;4.82;1.08;;;;;;;20.98;28.60;99284.78;2626217;54;20026;-67
2022/05/13 11:55:45;;;;;;;1.65;0.90;;;;;;;21.11;29.15;99286.28;2626047;54;20038;-68
2022/05/13 11:58:45;;;;;;;4.40;1.20;;;;;;;21.12;28.65;99284.41;2619757;54;20041;-68
2022/05/13 12:01:16;;;;;;;2.97;1.00;;;;;;;21.23;29.04;99280.78;2617658;54;20034;-69
2022/05/13 12:03:45;;;;;;;3.05;0.90;;;;;;;21.28;28.95;99284.34;2618570;39;20430;-67
2022/05/13 12:06:15;;;;;;;3.97;1.23;;;;;;;21.34;29.45;99271.78;2617905;39;20457;-68
2022/05/13 12:08:55;;;;;;;1.88;0.90;;;;;;;21.30;29.75;99272.50;2617898;54;20038;-68
2022/05/13 12:11:46;;;;;;;5.10;1.05;;;;;;;21.44;30.03;99266.53;2617820;54;20038;-70
2022/05/13 12:14:28;;;;;;;1.38;0.90;;;;;;;21.67;29.65;99265.41;2617729;54;20042;-70
2022/05/13 12:17:11;;;;;;;2.42;1.10;;;;;;;21.74;28.44;99274.09;2617602;54;20034;-70
2022/05/13 12:19:52;;;;;;;1.93;1.33;;;;;;;21.64;28.49;99274.03;2617900;54;20026;-68
2022/05/13 12:22:39;;;;;;;4.85;1.15;;;;;;;21.60;28.04;99275.59;2617855;54;20291;-68
2022/05/13 12:25:15;;;;;;;1.58;0.80;;;;;;;21.68;28.10;99277.81;2617683;54;20022;-69
2022/05/13 12:27:47;;;;;;;4.60;1.00;;;;;;;21.82;28.22;99274.72;2617050;47;20064;-69
2022/05/13 12:30:34;;;;;;;3.65;1.20;;;;;;;21.93;28.25;99279.94;2617214;46;20049;-68
2022/05/13 12:33:39;;;;;;;4.72;1.60;;;;;;;21.90;27.44;99269.69;2617713;54;20038;-69
2022/05/13 12:39:16;;;;;;;2.95;1.00;;;;;;;21.97;27.41;99261.41;2617496;54;20030;-70
2022/05/13 12:41:56;;;;;;;2.55;1.00;;;;;;;22.04;27.55;99270.06;2617300;54;20030;-70
2022/05/13 12:44:38;;;;;;;1.50;0.90;;;;;;;21.87;27.99;99267.50;2617702;54;20068;-70
2022/05/13 12:47:23;;;;;;;3.78;1.20;;;;;;;22.01;28.21;99262.53;2616840;54;20030;-70
2022/05/13 12:49:59;;;;;;;4.13;1.10;;;;;;;22.23;28.51;99254.38;2617096;47;20035;-69
2022/05/13 12:52:42;;;;;;;2.55;1.10;;;;;;;22.47;27.60;99254.81;2617987;54;20046;-69
2022/05/13 12:55:20;;;;;;;4.63;1.25;;;;;;;22.50;27.81;99249.72;2617507;54;20027;-70
2022/05/13 12:57:55;;;;;;;4.28;1.73;;;;;;;22.53;27.69;99247.56;2617450;54;20053;-69
2022/05/13 13:00:33;;;;;;;4.82;1.13;;;;;;;22.77;27.53;99246.09;2618312;39;20450;-69
2022/05/13 13:03:09;;;;;;;2.53;1.00;;;;;;;22.62;27.69;99248.72;2618465;54;20115;-69
2022/05/13 13:05:42;;;;;;;3.65;0.98;;;;;;;22.60;27.23;99246.28;2617841;47;20030;-69